Camp Douglas, WI (54637)

02:56 CDT le 25 août 2016 (GMT -0500)
In Town | | Change Station

Alt. 909 ft 43.88 °N, 90.17 °W | Updated 4 minutes ago

Scattered Clouds
Nuages épars
65.8 ° F
Paraît 65.8 ° F
N
0.0
Vent Variable Vent de Ouest

Aujourd'hui
Haut(e) -- | Bas -- ° F
--% Risque de précip.
Hier
Haut(e) -- | Bas -- ° F
Precip. -- pouce
Pression 29.98 pouce
Visibilité 10.0 Miles terrestres
Nuages Nuages épars 17000 ft
Point de rosée 61 ° F
Humidité 85%
Précipitations 0.00 pouce
Profondeur de la couche neigeuse Non disponible.
6:17 AM 7:48 PM
Lune gibbeuse décroissante, 48% visible
SPECI KVOK 250718Z AUTO 30005KT 10SM SCT170 17/16 A2998 RMK AO2
Pression 29.98 pouce
Visibilité 10.0 Miles terrestres
Nuages Nuages épars 17000 ft
Point de rosée 61 ° F
Humidité 85%
Précipitations 0.00 pouce
Profondeur de la couche neigeuse Non disponible.
6:17 AM 7:48 PM
Lune gibbeuse décroissante, 48% visible
SPECI KVOK 250718Z AUTO 30005KT 10SM SCT170 17/16 A2998 RMK AO2

10-Day Weather Forecast

Almanac

Astronomie

Aug. 25, 2016 Lever Coucher
Temps réel
Crépuscule civil
Crépuscule nautique
Crépuscule astronomique
Lune
Durée de lumière visible
Longueur du jour
Tomorrow will be .
, % of the Moon is Illuminated

Extrêmes aujourd'hui

State Highs State Lows

Community

WunderPhotos

Upload Photos

1,934,814 Photos téléchargées !

WunderBlog® & News

Nearby

Qualité de l'air

  Qualité de l'air Indice de la qualité de l'air Polluant
Not available.

Épaisseur de neige

Station Depth Altitude

Activité sismique

Ville Distance Mag. Time & Date
Minimum magnitude displayed is 2.5.

Températures des eaux côtières

Lieu Température

Stations

Stations météo à proximité

Emplacement de la station Température Refroidissement éolien Point de rosée Humidité Vent Precip. Alt. Mise à jour Type
                   

Watches & Warnings

There are currently no watches in effect.